Indian River Shores, Florida
Current Conditions -  °F | °C
As of 12:53 PM on Tuesday 21 Oct 2014 (Local Time) from KVRB Reporting Station
Overcast Overcast  
Wind Chill: 26°   Ceiling: 4000
Heat Index: 28°   Visibility: 10mi
Dew Point: 21°   Wind: 5mph
Humidity: 72%   Direction: 90°E
Pressure: 29.95"   Gusts: NA
Location:  27.7066°N, 80.3826°W
Report Text: KVRB 211653Z 09004KT 10SM OVC040 26/21 A2995 RMK AO2 LTG DSNT S AND SW SLP141 T02610206
Loading
Personal Weather Stations






























Interactive Weather Map
Tropical Storm Tracking
New forecast layout! Learn more

10-Day Weather Forecast

Advertisements
Track Severe Weather on mobile